Ana Sayfa
METAR-TAF:

METAR-TAF

Havaalanları :

İrkutsk, Rusya

Enlem: 52-16N, Boylam: 104-19E, yükseklik: 513 m

Güncel hava durumu gözlemi

Rapor saat 10:00 UTC de 24 dakika önce yapıldı.
Rüzgar kuzeydan 4 kt
Sıcaklık -21°C
Nem 77%
Basınç 1033 hPa
Görüş mesafesi: 4200 m
Duman

METAR: UIII 101000Z 35002MPS 4200 FU NSC M21/M24 Q1033 R30/810350 NOSIG RMK QFE729/0972

Saat: 18:24 (10:24 UTC)

Tahmin

Rapor saat 09:19 UTC de 1 saat ve 5 dakika önce yapıldı.
Ayın 10'si saat 09 UTC'den ayın 11'si saat 09 UTC'ye kadar geçerli Tahmin
Rüzgar değişken yönden 2 kt
Görüş mesafesi: 2200 m
Duman
Geçici
ayın 10'si saat 09 UTC'den ayın 11'si saat 02 UTC'ye kadar
Görüş mesafesi: 0500 m
200 ft yükseklikte
Donan sis
Dönüşüyor
ayın 11'si saat 02 UTC'den ayın 11'si saat 04 UTC'ye kadar
Görüş mesafesi 10 km veya daha fazla

TAF: UIII 100919Z 1009/1109 VRB01MPS 2200 FU NSC TEMPO 1009/1102 0500 FZFG VV002 BECMG 1102/1104 9999 NSW

4.000'den fazla havaalanı için hava durumu gözlemleri ve tahminleri (METAR ve TAF raporları).

Kullanılabilir istasyonlar harita üzerinde sarı ve kırmızı noktalarla gösterilir.

İstasyonun adını görmek için fareyi noktanın üzerinde gezdirin.

Sonrasında hava gözlem ve tahminlerini görmek için tıklayın.

Haritayı değiştirmek için: yaklaştırmak için siyah artı işaretli yeşil düğmeye ve uzaklaştırmak için de eksi işaretli düğmeye hızla tıklayın; bitişik haritalar için yeşil okları kullanın.


METAR-TAF: